createdAt,value
2018-06-17T00:01:54.338Z,28.40
2018-06-17T00:04:24.518Z,23.47
2018-06-17T00:06:54.882Z,24.20
2018-06-17T00:09:25.317Z,27.50
2018-06-17T00:11:55.472Z,25.60
2018-06-17T00:14:25.857Z,23.90
2018-06-17T00:16:56.021Z,24.27
2018-06-17T00:19:26.728Z,22.30
2018-06-17T00:21:56.791Z,23.17
2018-06-17T00:24:27.273Z,24.70
2018-06-17T00:26:57.186Z,25.20
2018-06-17T00:29:27.499Z,23.33
2018-06-17T00:31:57.730Z,24.20
2018-06-17T00:34:27.950Z,22.13
2018-06-17T00:36:58.234Z,25.30
2018-06-17T00:39:28.595Z,28.00
2018-06-17T00:41:58.766Z,27.70
2018-06-17T00:44:29.043Z,28.40
2018-06-17T00:46:59.212Z,28.50
2018-06-17T00:49:29.597Z,28.47
2018-06-17T00:51:59.754Z,29.90
2018-06-17T00:54:30.228Z,30.35
2018-06-17T00:57:17.343Z,30.23
2018-06-17T00:59:47.679Z,30.40
2018-06-17T01:02:17.853Z,31.35
2018-06-17T01:04:48.235Z,29.72
2018-06-17T01:07:18.449Z,30.65
2018-06-17T01:09:48.783Z,28.73
2018-06-17T01:12:18.754Z,29.05
2018-06-17T01:14:49.027Z,29.48
2018-06-17T01:17:19.348Z,28.20
2018-06-17T01:19:49.771Z,31.70
2018-06-17T01:22:20.198Z,28.10
2018-06-17T01:24:50.407Z,28.38
2018-06-17T01:27:20.742Z,28.42
2018-06-17T01:29:50.950Z,28.98
2018-06-17T01:32:21.408Z,28.83
2018-06-17T01:34:51.934Z,26.73
2018-06-17T01:37:22.360Z,28.83
2018-06-17T01:39:52.519Z,28.32
2018-06-17T01:42:23.021Z,27.42
2018-06-17T01:44:53.205Z,27.62
2018-06-17T01:47:23.450Z,27.80
2018-06-17T01:49:53.643Z,27.30
2018-06-17T01:52:24.107Z,28.15
2018-06-17T01:54:54.267Z,29.87
2018-06-17T01:57:24.650Z,28.83
2018-06-17T01:59:54.815Z,26.07
2018-06-17T02:02:25.301Z,26.33
2018-06-17T02:05:00.622Z,29.70
2018-06-17T02:07:36.094Z,27.30
2018-06-17T02:10:11.483Z,26.80
2018-06-17T02:12:41.963Z,28.40
2018-06-17T02:15:11.898Z,28.20
2018-06-17T02:17:41.830Z,29.77
2018-06-17T02:20:12.167Z,26.80
2018-06-17T02:22:42.670Z,26.97
2018-06-17T02:25:12.838Z,27.97
2018-06-17T02:27:43.292Z,27.65
2018-06-17T02:30:13.631Z,27.60
2018-06-17T02:32:44.263Z,29.32
2018-06-17T02:35:14.510Z,27.62
2018-06-17T02:37:44.955Z,29.20
2018-06-17T02:40:15.336Z,27.15
2018-06-17T02:42:45.507Z,28.87
2018-06-17T02:45:21.194Z,29.42
2018-06-17T02:47:56.950Z,30.12
2018-06-17T02:50:32.466Z,29.90
2018-06-17T02:53:08.048Z,30.92
2018-06-17T02:55:38.211Z,30.35
2018-06-17T02:58:08.601Z,31.15
2018-06-17T03:00:38.838Z,33.50
2018-06-17T03:03:09.247Z,30.45
2018-06-17T03:05:39.419Z,33.45
2018-06-17T03:08:09.808Z,31.77
2018-06-17T03:10:40.340Z,34.50
2018-06-17T03:13:10.524Z,36.50
2018-06-17T03:15:40.982Z,36.28
2018-06-17T03:18:11.144Z,35.48
2018-06-17T03:20:41.555Z,35.20
2018-06-17T03:23:11.770Z,37.38
2018-06-17T03:25:47.311Z,37.17
2018-06-17T03:28:22.509Z,37.33
2018-06-17T03:30:58.082Z,37.23
2018-06-17T03:33:33.399Z,34.00
2018-06-17T03:36:11.436Z,31.80
2018-06-17T03:38:42.357Z,31.25
2018-06-17T03:41:13.210Z,30.08
2018-06-17T03:43:43.403Z,28.90
2018-06-17T03:46:13.757Z,30.62
2018-06-17T03:48:43.928Z,30.10
2018-06-17T03:51:14.299Z,29.10
2018-06-17T03:53:44.470Z,29.10
2018-06-17T03:56:14.782Z,26.40
2018-06-17T03:58:44.950Z,26.70
2018-06-17T04:01:15.297Z,26.05
2018-06-17T04:03:45.498Z,26.65
2018-06-17T04:06:15.845Z,28.02
2018-06-17T04:08:45.846Z,26.02
2018-06-17T04:11:16.060Z,26.17
2018-06-17T04:13:46.252Z,28.23
2018-06-17T04:16:16.633Z,25.70
2018-06-17T04:18:46.815Z,27.48
2018-06-17T04:21:17.279Z,27.27
2018-06-17T04:23:47.261Z,28.60
2018-06-17T04:26:17.423Z,28.20
2018-06-17T04:28:47.744Z,25.70
2018-06-17T04:31:17.918Z,29.87
2018-06-17T04:33:48.271Z,30.50
2018-06-17T04:36:18.637Z,25.80
2018-06-17T04:38:48.846Z,27.03
2018-06-17T04:41:18.671Z,29.10
2018-06-17T04:43:49.595Z,28.30
2018-06-17T04:46:19.533Z,26.87
2018-06-17T04:48:49.837Z,28.17
2018-06-17T04:51:20.014Z,27.57
2018-06-17T04:53:50.375Z,25.37
2018-06-17T04:56:20.540Z,26.13
2018-06-17T04:58:50.928Z,19.97
2018-06-17T05:01:21.094Z,23.80
2018-06-17T05:03:51.475Z,20.13
2018-06-17T05:06:21.634Z,21.20
2018-06-17T05:08:51.939Z,19.33
2018-06-17T05:11:22.103Z,18.53
2018-06-17T05:13:52.402Z,18.80
2018-06-17T05:16:22.577Z,17.47
2018-06-17T05:18:53.028Z,19.07
2018-06-17T05:21:23.207Z,16.93
2018-06-17T05:23:53.680Z,17.80
2018-06-17T05:26:23.842Z,16.93
2018-06-17T05:28:54.332Z,18.20
2018-06-17T05:31:24.511Z,18.17
2018-06-17T05:33:54.983Z,19.20
2018-06-17T05:36:25.206Z,17.80
2018-06-17T05:38:55.260Z,15.60
2018-06-17T05:41:32.309Z,16.47
2018-06-17T05:44:02.519Z,16.60
2018-06-17T05:46:33.281Z,14.53
2018-06-17T05:49:03.459Z,14.27
2018-06-17T05:51:34.449Z,14.67
2018-06-17T05:54:04.621Z,14.40
2018-06-17T05:56:35.076Z,14.17
2018-06-17T05:59:05.221Z,14.33
2018-06-17T06:01:35.329Z,13.80
2018-06-17T06:04:05.485Z,12.90
2018-06-17T06:06:35.883Z,12.63
2018-06-17T06:09:08.956Z,11.37
2018-06-17T06:11:39.427Z,10.80
2018-06-17T06:14:09.619Z,11.33
2018-06-17T06:16:40.032Z,9.83
2018-06-17T06:19:10.194Z,10.10
2018-06-17T06:21:40.608Z,10.20
2018-06-17T06:24:10.779Z,9.07
2018-06-17T06:26:41.159Z,9.27
2018-06-17T06:29:11.345Z,9.40
2018-06-17T06:31:41.793Z,9.33
2018-06-17T06:34:11.974Z,8.90
2018-06-17T06:36:42.506Z,9.97
2018-06-17T06:39:12.830Z,9.47
2018-06-17T06:41:43.291Z,8.93
2018-06-17T06:44:13.230Z,8.40
2018-06-17T06:46:43.515Z,8.10
2018-06-17T06:49:13.955Z,7.60
2018-06-17T06:51:44.168Z,7.17
2018-06-17T06:54:14.597Z,7.10
2018-06-17T06:56:44.837Z,7.87
2018-06-17T06:59:15.243Z,7.20
2018-06-17T07:02:02.698Z,7.07
2018-06-17T07:04:49.931Z,7.50
2018-06-17T07:07:37.248Z,6.87
2018-06-17T07:10:22.071Z,6.00
2018-06-17T07:12:52.641Z,6.30
2018-06-17T07:15:39.923Z,5.93
2018-06-17T07:18:39.655Z,5.30
2018-06-17T07:21:10.483Z,5.10
2018-06-17T07:23:40.942Z,5.37
2018-06-17T07:26:34.432Z,5.07
2018-06-17T07:29:22.839Z,4.90
2018-06-17T07:31:53.146Z,5.70
2018-06-17T07:57:31.350Z,7.40
2018-06-17T08:02:31.222Z,7.30
2018-06-17T08:05:01.693Z,7.60
2018-06-17T08:07:31.886Z,7.07
2018-06-17T08:10:02.344Z,7.00
2018-06-17T08:22:30.507Z,7.73
2018-06-17T08:27:30.366Z,6.55
2018-06-17T08:30:00.746Z,6.77
2018-06-17T08:32:30.923Z,6.50
2018-06-17T08:35:01.390Z,7.10
2018-06-17T08:37:31.683Z,6.30
2018-06-17T08:40:02.045Z,6.75
2018-06-17T08:42:32.209Z,5.80
2018-06-17T08:45:02.594Z,5.50
2018-06-17T08:47:32.744Z,6.33
2018-06-17T08:50:03.146Z,5.47
2018-06-17T08:52:33.070Z,5.80
2018-06-17T08:55:03.374Z,4.80
2018-06-17T09:00:03.182Z,5.00
2018-06-17T09:02:33.551Z,5.00
2018-06-17T09:05:03.711Z,5.00
2018-06-17T09:07:34.184Z,5.95
2018-06-17T09:10:04.365Z,5.40
2018-06-17T09:12:34.730Z,6.00
2018-06-17T09:15:04.931Z,4.80
2018-06-17T09:17:35.374Z,5.20
2018-06-17T09:20:05.550Z,5.50
2018-06-17T09:25:05.418Z,4.95
2018-06-17T09:40:02.889Z,5.45
2018-06-17T09:42:34.138Z,5.00
2018-06-17T09:45:04.294Z,5.40
2018-06-17T09:47:34.638Z,5.20
2018-06-17T09:55:03.710Z,5.20
2018-06-17T10:02:32.905Z,5.90
2018-06-17T10:05:03.178Z,4.60
2018-06-17T10:07:33.322Z,6.20
2018-06-17T10:11:10.734Z,5.50
2018-06-17T10:16:13.160Z,5.20
2018-06-17T10:18:43.582Z,5.40
2018-06-17T10:21:14.085Z,5.30
2018-06-17T10:23:43.973Z,4.30
2018-06-17T10:31:13.287Z,5.60
2018-06-17T10:33:43.517Z,5.50
2018-06-17T10:36:14.138Z,5.70
2018-06-17T10:38:44.332Z,5.10
2018-06-17T10:41:14.793Z,5.85
2018-06-17T10:43:44.971Z,6.00
2018-06-17T10:46:15.234Z,10.60
2018-06-17T10:48:45.394Z,6.20
2018-06-17T10:51:15.900Z,5.70
2018-06-17T10:53:46.042Z,4.27
2018-06-17T10:56:16.474Z,4.50
2018-06-17T10:58:46.638Z,5.07
2018-06-17T11:01:17.034Z,5.67
2018-06-17T11:03:47.147Z,5.90
2018-06-17T11:06:17.519Z,4.35
2018-06-17T11:08:48.194Z,4.90
2018-06-17T11:11:18.585Z,3.80
2018-06-17T11:16:18.631Z,3.60
2018-06-17T11:18:49.003Z,3.50
2018-06-17T11:21:19.088Z,3.55
2018-06-17T11:23:50.127Z,3.60
2018-06-17T11:26:20.188Z,3.40
2018-06-17T11:28:50.750Z,3.50
2018-06-17T11:31:20.902Z,4.00
2018-06-17T11:36:20.633Z,4.10
2018-06-17T11:41:20.184Z,4.00
2018-06-17T11:58:46.676Z,4.20
2018-06-17T12:06:15.846Z,4.20
2018-06-17T12:13:45.240Z,4.40
2018-06-17T12:21:14.783Z,4.25
2018-06-17T12:23:44.923Z,4.20
2018-06-17T12:26:15.238Z,3.90
2018-06-17T12:31:14.767Z,3.90
2018-06-17T12:38:44.061Z,4.25
2018-06-17T12:41:14.419Z,4.30
2018-06-17T12:43:44.564Z,5.10
2018-06-17T12:46:14.856Z,4.80
2018-06-17T12:48:45.019Z,4.20
2018-06-17T12:51:15.312Z,4.40
2018-06-17T12:53:45.478Z,5.00
2018-06-17T12:56:15.946Z,5.10
2018-06-17T12:58:46.095Z,4.40
2018-06-17T13:01:16.605Z,4.60
2018-06-17T13:03:46.771Z,4.10
2018-06-17T13:06:17.262Z,4.15
2018-06-17T13:08:47.966Z,4.70
2018-06-17T13:11:18.311Z,4.37
2018-06-17T13:13:48.462Z,4.50
2018-06-17T13:26:16.783Z,4.30
2018-06-17T13:28:46.974Z,4.00
2018-06-17T13:36:16.458Z,4.70
2018-06-17T13:38:46.517Z,5.15
2018-06-17T13:46:15.628Z,5.55
2018-06-17T13:48:45.824Z,4.50
2018-06-17T13:51:15.977Z,4.50
2018-06-17T13:53:46.262Z,6.00
2018-06-17T14:01:15.427Z,6.00
2018-06-17T14:06:15.147Z,6.80
2018-06-17T14:08:45.662Z,8.90
2018-06-17T14:16:15.014Z,5.00
2018-06-17T14:21:14.526Z,5.50
2018-06-17T14:23:44.839Z,4.53
2018-06-17T14:26:14.994Z,5.30
2018-06-17T14:28:45.394Z,5.97
2018-06-17T14:31:15.594Z,5.17
2018-06-17T14:33:46.135Z,5.27
2018-06-17T14:36:16.643Z,4.50
2018-06-17T14:38:46.791Z,5.37
2018-06-17T14:41:18.651Z,6.50
2018-06-17T14:43:53.994Z,5.13
2018-06-17T14:46:29.550Z,4.77
2018-06-17T14:49:05.088Z,4.80
2018-06-17T14:51:51.002Z,4.77
2018-06-17T14:54:21.407Z,5.27
2018-06-17T14:56:51.649Z,5.50
2018-06-17T14:59:22.038Z,4.40
2018-06-17T15:01:52.210Z,4.27
2018-06-17T15:04:22.611Z,4.97
2018-06-17T15:06:52.552Z,5.30
2018-06-17T15:09:22.872Z,4.03
2018-06-17T15:11:53.006Z,4.60
2018-06-17T15:14:23.411Z,4.00
2018-06-17T15:16:53.567Z,4.90
2018-06-17T15:19:24.049Z,4.20
2018-06-17T15:21:54.408Z,4.37
2018-06-17T15:24:24.542Z,5.40
2018-06-17T15:26:55.015Z,9.87
2018-06-17T15:29:25.189Z,4.70
2018-06-17T15:32:00.992Z,6.20
2018-06-17T15:34:36.356Z,4.57
2018-06-17T15:37:12.157Z,8.70
2018-06-17T15:39:59.665Z,9.40
2018-06-17T15:42:29.994Z,5.67
2018-06-17T15:45:00.163Z,3.73
2018-06-17T15:47:30.508Z,6.00
2018-06-17T15:50:00.654Z,4.63
2018-06-17T15:52:31.036Z,3.17
2018-06-17T15:55:01.255Z,3.03
2018-06-17T15:57:31.595Z,3.80
2018-06-17T16:00:01.828Z,3.57
2018-06-17T16:02:32.232Z,3.80
2018-06-17T16:05:02.403Z,4.17
2018-06-17T16:07:32.781Z,8.20
2018-06-17T16:10:02.974Z,3.77
2018-06-17T16:12:38.552Z,3.50
2018-06-17T16:15:13.971Z,3.27
2018-06-17T16:18:51.080Z,3.10
2018-06-17T16:21:21.228Z,3.33
2018-06-17T16:23:51.655Z,3.47
2018-06-17T16:26:21.806Z,2.80
2018-06-17T16:28:52.110Z,2.83
2018-06-17T16:31:22.275Z,2.93
2018-06-17T16:33:52.575Z,2.80
2018-06-17T16:36:22.872Z,2.63
2018-06-17T16:38:53.189Z,2.50
2018-06-17T16:41:23.350Z,2.53
2018-06-17T16:43:53.834Z,3.37
2018-06-17T16:46:23.970Z,2.93
2018-06-17T16:48:54.804Z,2.70
2018-06-17T16:51:30.122Z,4.33
2018-06-17T16:54:05.687Z,2.97
2018-06-17T16:56:41.210Z,3.23
2018-06-17T16:59:16.872Z,3.13
2018-06-17T17:01:46.993Z,2.83
2018-06-17T17:04:17.327Z,2.63
2018-06-17T17:06:47.635Z,3.70
2018-06-17T17:09:18.070Z,2.80
2018-06-17T17:11:48.247Z,2.30
2018-06-17T17:14:18.775Z,3.17
2018-06-17T17:16:48.927Z,3.37
2018-06-17T17:19:19.274Z,6.20
2018-06-17T17:21:50.436Z,4.80
2018-06-17T17:24:20.835Z,5.80
2018-06-17T17:26:51.026Z,4.00
2018-06-17T17:29:21.513Z,4.17
2018-06-17T17:31:56.934Z,3.07
2018-06-17T17:34:32.584Z,3.03
2018-06-17T17:37:08.106Z,3.70
2018-06-17T17:39:49.729Z,2.90
2018-06-17T17:42:20.811Z,3.30
2018-06-17T17:44:56.426Z,3.67
2018-06-17T17:47:29.082Z,3.45
2018-06-17T17:49:59.531Z,3.50
2018-06-17T17:52:29.801Z,4.10
2018-06-17T17:55:00.167Z,2.90
2018-06-17T17:57:30.323Z,4.45
2018-06-17T18:00:00.635Z,3.23
2018-06-17T18:02:30.779Z,3.10
2018-06-17T18:05:01.158Z,4.60
2018-06-17T18:07:37.634Z,6.15
2018-06-17T18:10:07.954Z,3.55
2018-06-17T18:12:38.235Z,3.30
2018-06-17T18:15:09.137Z,3.63
2018-06-17T18:17:39.299Z,3.60
2018-06-17T18:20:09.671Z,5.33
2018-06-17T18:22:39.997Z,4.10
2018-06-17T18:25:15.502Z,7.97
2018-06-17T18:27:51.134Z,17.03
2018-06-17T18:30:26.450Z,4.40
2018-06-17T18:33:02.076Z,7.47
2018-06-17T18:35:37.539Z,3.30
2018-06-17T18:38:08.078Z,4.27
2018-06-17T18:40:38.280Z,5.70
2018-06-17T18:43:08.709Z,2.80
2018-06-17T18:45:38.770Z,6.50
2018-06-17T18:48:09.262Z,3.43
2018-06-17T18:50:39.516Z,7.43
2018-06-17T18:53:10.008Z,10.23
2018-06-17T18:55:40.189Z,4.03
2018-06-17T18:58:10.656Z,4.40
2018-06-17T19:00:41.016Z,4.83
2018-06-17T19:03:11.533Z,3.30
2018-06-17T19:05:41.475Z,6.37
2018-06-17T19:08:16.977Z,3.73
2018-06-17T19:10:52.524Z,2.90
2018-06-17T19:13:28.060Z,5.03
2018-06-17T19:16:04.946Z,5.08
2018-06-17T19:18:35.401Z,2.95
2018-06-17T19:21:05.326Z,3.10
2018-06-17T19:23:35.549Z,3.00
2018-06-17T19:26:05.918Z,7.62
2018-06-17T19:28:36.387Z,19.02
2018-06-17T19:31:06.554Z,4.60
2018-06-17T19:33:36.924Z,3.87
2018-06-17T19:36:07.163Z,11.80
2018-06-17T19:38:37.480Z,3.87
2018-06-17T19:41:07.856Z,4.80
2018-06-17T19:43:37.972Z,5.62
2018-06-17T19:46:08.411Z,3.92
2018-06-17T19:48:38.543Z,3.30
2018-06-17T19:51:14.322Z,3.02
2018-06-17T19:53:49.871Z,2.85
2018-06-17T19:56:25.506Z,6.60
2018-06-17T19:59:00.957Z,3.67
2018-06-17T20:01:31.274Z,7.92
2018-06-17T20:04:01.317Z,5.25
2018-06-17T20:06:31.742Z,4.25
2018-06-17T20:09:01.558Z,2.62
2018-06-17T20:11:31.754Z,7.40
2018-06-17T20:14:02.042Z,8.08
2018-06-17T20:16:32.303Z,4.12
2018-06-17T20:19:02.507Z,8.80
2018-06-17T20:21:32.851Z,14.58
2018-06-17T20:24:03.052Z,12.78
2018-06-17T20:26:33.513Z,6.53
2018-06-17T20:29:03.691Z,6.92
2018-06-17T20:31:36.019Z,7.28
2018-06-17T20:34:11.752Z,6.70
2018-06-17T20:36:47.520Z,17.23
2018-06-17T20:39:22.634Z,39.65
2018-06-17T20:41:58.070Z,15.32
2018-06-17T20:44:28.236Z,10.88
2018-06-17T20:46:58.553Z,7.40
2018-06-17T20:49:28.715Z,4.08
2018-06-17T20:51:59.005Z,11.38
2018-06-17T20:54:29.175Z,5.45
2018-06-17T20:56:59.547Z,24.95
2018-06-17T20:59:29.951Z,30.35
2018-06-17T21:01:59.899Z,15.40
2018-06-17T21:04:30.104Z,27.22
2018-06-17T21:07:00.291Z,15.58
2018-06-17T21:09:30.654Z,11.50
2018-06-17T21:12:00.814Z,8.50
2018-06-17T21:14:31.293Z,20.62
2018-06-17T21:17:01.235Z,21.80
2018-06-17T21:19:36.559Z,14.63
2018-06-17T21:22:11.927Z,40.58
2018-06-17T21:24:47.443Z,14.80
2018-06-17T21:27:22.845Z,17.65
2018-06-17T21:29:53.207Z,7.00
2018-06-17T21:32:23.550Z,10.00
2018-06-17T21:34:53.965Z,28.75
2018-06-17T21:37:24.463Z,12.40
2018-06-17T21:39:54.834Z,28.85
2018-06-17T21:42:25.010Z,13.50
2018-06-17T21:44:55.382Z,5.67
2018-06-17T21:47:26.058Z,11.28
2018-06-17T21:49:56.418Z,9.70
2018-06-17T21:52:26.650Z,4.58
2018-06-17T21:54:57.374Z,4.10
2018-06-17T21:57:27.883Z,6.25
2018-06-17T21:59:58.358Z,8.03
2018-06-17T22:02:28.496Z,5.62
2018-06-17T22:04:58.891Z,8.40
2018-06-17T22:07:29.312Z,7.30
2018-06-17T22:10:04.716Z,6.30
2018-06-17T22:13:10.442Z,8.65
2018-06-17T22:15:46.164Z,8.40
2018-06-17T22:18:16.339Z,7.33
2018-06-17T22:20:47.014Z,7.20
2018-06-17T22:23:16.951Z,4.80
2018-06-17T22:25:47.258Z,4.00
2018-06-17T22:28:17.178Z,4.47
2018-06-17T22:30:47.496Z,5.03
2018-06-17T22:33:17.671Z,6.70
2018-06-17T22:35:48.248Z,5.08
2018-06-17T22:38:18.504Z,4.00
2018-06-17T22:40:48.804Z,4.10
2018-06-17T22:43:19.245Z,4.30
2018-06-17T22:45:49.418Z,4.30
2018-06-17T22:48:19.870Z,4.78
2018-06-17T22:50:50.056Z,4.60
2018-06-17T22:53:37.429Z,6.08
2018-06-17T22:56:12.985Z,4.72
2018-06-17T22:58:48.242Z,4.95
2018-06-17T23:03:26.437Z,4.65
2018-06-17T23:06:01.967Z,4.67
2018-06-17T23:08:37.531Z,3.95
2018-06-17T23:11:07.937Z,4.40
2018-06-17T23:13:38.389Z,4.22
2018-06-17T23:16:08.728Z,4.35
2018-06-17T23:18:39.138Z,4.00
2018-06-17T23:21:09.053Z,4.17
2018-06-17T23:23:39.384Z,4.67
2018-06-17T23:26:09.700Z,4.10
2018-06-17T23:28:40.034Z,4.70
2018-06-17T23:31:10.271Z,4.90
2018-06-17T23:33:40.888Z,5.20
2018-06-17T23:36:11.063Z,4.95
2018-06-17T23:38:41.745Z,4.17
2018-06-17T23:41:15.184Z,4.90
2018-06-17T23:43:47.695Z,4.80
2018-06-17T23:46:23.105Z,5.40
2018-06-17T23:48:58.951Z,4.92
2018-06-17T23:51:34.327Z,5.08
2018-06-17T23:54:09.822Z,4.83
2018-06-17T23:56:39.974Z,5.15
2018-06-17T23:59:10.378Z,4.55
